Accueil
METAR-TAF:

METAR-TAF

Aéroports :

Upshur County Regional Airport

Buckhannon, Virginie-Occidentale, États-Unis

latitude: 39-00N, longitude: 080-16W, altitude: 498 m

Observation

Le bulletin a été fait il y a 27 minutes, à 19:15 UTC
Vent 6 kt de direction variable avec des rafales jusqu'à 12 kt
Température 34°C
Humidité 47%
Pression 1011 hPa
Visibilité: 16.1 km
Ciel clair

METAR: KW22 101915Z AUTO VRB06G12KT 10SM CLR 34/21 A2985 RMK AO2

Heure: 15:42 (19:42 UTC)


TAF: absent

Observations et prévisions météorologiques de plus de 4000 aéroports (messages METAR et TAF).

Les stations disponibles sont représentées par des disques jaunes et rouges sur la carte.

Passer la souris dessus pour voir le nom de la station.

Cliquer dessus pour voir les observations et prévisions météorologiques.

Pour changer de carte: cliquez sur les boutons verts avec une croix noire pour zoomer, sur le bouton vert avec un tiret pour effectuer un zoom arrière, ou sur les flèches vertes pour les cartes adjacentes.


METAR-TAF: